Time;durP1;ratioP1;P1;durP2;ratioP2;P2;SDS_P1;SDS_P2;PMS_P1;PMS_P2;Temp;Humidity;BMP_temperature;BMP_pressure;BME280_temperature;BME280_humidity;BME280_pressure;Samples;Min_cycle;Max_cycle;Signal;HPM_P1;HPM_P2
2022/03/11 00:01:53;;;;;;;;;;;;;;;13.96;36.11;102060.66;4945885;28;127705;-64
2022/03/11 00:04:19;;;;;;;;;;;;;;;13.95;36.30;102050.06;4975209;28;127038;-65
2022/03/11 00:06:45;;;;;;;;;;;;;;;13.93;36.34;102063.06;4962597;28;97807;-63
2022/03/11 00:09:12;;;;;;;;;;;;;;;13.92;36.33;102056.00;4960330;28;128115;-65
2022/03/11 00:11:38;;;;;;;;;;;;;;;13.90;36.38;102056.22;4979260;28;99635;-64
2022/03/11 00:14:04;;;;;;;;;;;;;;;13.88;36.13;102058.41;4982505;28;98183;-64
2022/03/11 00:16:30;;;;;;;;;;;;;;;13.87;36.10;102053.19;4980898;28;119016;-64
2022/03/11 00:18:56;;;;;;;;;;;;;;;13.85;36.37;102055.38;4981148;28;98026;-65
2022/03/11 00:21:22;;;;;;;;;;;;;;;13.84;36.21;102053.72;4981388;28;128176;-65
2022/03/11 00:23:48;;;;;;;;;;;;;;;13.82;36.21;102051.25;4963785;28;98424;-64
2022/03/11 00:26:14;;;;;;;;;;;;;;;13.80;36.48;102052.59;4962128;28;117822;-65
2022/03/11 00:28:40;;;;;;;;;;;;;;;13.78;36.26;102046.59;4966949;28;128195;-65
2022/03/11 00:31:05;;;;;;;;;;;;;;;13.76;36.09;102049.56;4962612;28;98295;-64
2022/03/11 00:33:31;;;;;;;;;;;;;;;13.74;36.43;102040.84;4954802;28;126687;-66
2022/03/11 00:35:58;;;;;;;;;;;;;;;13.73;36.14;102042.75;4958595;28;116804;-63
2022/03/11 00:38:24;;;;;;;;;;;;;;;13.71;36.40;102046.75;4975574;28;99102;-65
2022/03/11 00:40:56;;;;;;;;;;;;;;;13.69;36.47;102044.31;4982195;28;98947;-64
2022/03/11 00:43:25;;;;;;;;;;;;;;;13.67;36.20;102037.50;4981765;28;98346;-65
2022/03/11 00:45:51;;;;;;;;;;;;;;;13.64;36.27;102033.41;4980544;28;97918;-66
2022/03/11 00:48:17;;;;;;;;;;;;;;;13.63;36.35;102022.81;4969806;28;106865;-65
2022/03/11 00:50:43;;;;;;;;;;;;;;;13.61;36.49;102023.06;4960135;28;128149;-63
2022/03/11 00:53:09;;;;;;;;;;;;;;;13.59;36.25;102025.19;4961033;28;125033;-65
2022/03/11 00:55:35;;;;;;;;;;;;;;;13.58;36.36;102022.75;4961027;28;117124;-64
2022/03/11 00:58:01;;;;;;;;;;;;;;;13.56;36.39;102031.13;4960840;28;126850;-65
2022/03/11 01:00:27;;;;;;;;;;;;;;;13.55;36.32;102025.94;4954509;28;128395;-66
2022/03/11 01:02:53;;;;;;;;;;;;;;;13.51;36.26;102023.72;4965249;28;123406;-64
2022/03/11 01:05:19;;;;;;;;;;;;;;;13.50;36.22;102027.50;4942416;28;118532;-64
2022/03/11 01:07:45;;;;;;;;;;;;;;;13.50;36.29;102026.69;4961268;28;98541;-65
2022/03/11 01:10:11;;;;;;;;;;;;;;;13.47;36.46;102030.72;4977857;28;127782;-63
2022/03/11 01:12:37;;;;;;;;;;;;;;;13.46;36.53;102028.28;4980657;28;109210;-65
2022/03/11 01:15:04;;;;;;;;;;;;;;;13.44;36.32;102022.25;4961118;28;118062;-66
2022/03/11 01:17:30;;;;;;;;;;;;;;;13.41;36.60;102020.88;4981183;28;98757;-64
2022/03/11 01:19:56;;;;;;;;;;;;;;;13.40;36.27;102016.56;4980306;28;98373;-64
2022/03/11 01:22:22;;;;;;;;;;;;;;;13.38;36.29;102013.25;4977278;28;98136;-65
2022/03/11 01:24:48;;;;;;;;;;;;;;;13.36;36.45;102006.44;4969284;28;117520;-65
2022/03/11 01:27:14;;;;;;;;;;;;;;;13.35;36.49;102007.50;4980155;28;126419;-65
2022/03/11 01:29:40;;;;;;;;;;;;;;;13.33;36.44;102010.47;4978565;28;97899;-64
2022/03/11 01:32:06;;;;;;;;;;;;;;;13.31;36.47;101999.06;4980762;28;113484;-64
2022/03/11 01:34:32;;;;;;;;;;;;;;;13.29;36.38;102005.81;4980139;28;110041;-65
2022/03/11 01:36:58;;;;;;;;;;;;;;;13.27;36.50;102004.16;4981228;28;105357;-64
2022/03/11 01:39:24;;;;;;;;;;;;;;;13.26;36.41;102002.53;4979514;28;127646;-66
2022/03/11 01:41:50;;;;;;;;;;;;;;;13.25;36.49;101994.66;4980120;28;126274;-64
2022/03/11 01:44:18;;;;;;;;;;;;;;;13.22;36.32;101995.94;4980448;28;97734;-64
2022/03/11 01:46:43;;;;;;;;;;;;;;;13.20;36.48;101995.38;4961997;28;98295;-64
2022/03/11 01:49:11;;;;;;;;;;;;;;;13.20;36.57;101983.69;4961311;28;104840;-64
2022/03/11 01:51:41;;;;;;;;;;;;;;;13.18;36.42;101983.16;4976608;28;98293;-66
2022/03/11 01:54:07;;;;;;;;;;;;;;;13.16;36.65;101977.97;4981167;28;99913;-65
2022/03/11 01:56:33;;;;;;;;;;;;;;;13.15;36.51;101980.94;4980273;28;98118;-66
2022/03/11 01:58:59;;;;;;;;;;;;;;;13.14;36.56;101976.59;4980639;28;99083;-66
2022/03/11 02:01:25;;;;;;;;;;;;;;;13.12;36.62;101978.72;4979877;28;126787;-66
2022/03/11 02:03:51;;;;;;;;;;;;;;;13.11;36.51;101966.25;4961339;28;117667;-66
2022/03/11 02:06:17;;;;;;;;;;;;;;;13.09;36.55;101971.91;4961199;28;127207;-64
2022/03/11 02:08:43;;;;;;;;;;;;;;;13.09;36.38;101971.09;4953684;28;112054;-66
2022/03/11 02:11:11;;;;;;;;;;;;;;;13.07;36.38;101973.22;4980276;28;111506;-66
2022/03/11 02:13:49;;;;;;;;;;;;;;;13.06;36.45;101966.19;4979840;28;97960;-64
2022/03/11 02:16:18;;;;;;;;;;;;;;;13.03;36.51;101967.47;4979625;28;98580;-65
2022/03/11 02:18:44;;;;;;;;;;;;;;;13.02;36.55;101963.16;4973157;28;99093;-65
2022/03/11 02:21:10;;;;;;;;;;;;;;;12.99;36.52;101966.34;4959838;28;128160;-66
2022/03/11 02:23:50;;;;;;;;;;;;;;;12.98;36.25;101962.81;4960999;28;97817;-66
2022/03/11 02:26:17;;;;;;;;;;;;;;;12.98;36.56;101964.72;4941782;28;98145;-65
2022/03/11 02:28:43;;;;;;;;;;;;;;;12.96;36.53;101964.94;4960732;28;99326;-64
2022/03/11 02:31:09;;;;;;;;;;;;;;;12.94;36.63;101967.09;4975283;28;122127;-65
2022/03/11 02:33:35;;;;;;;;;;;;;;;12.92;36.52;101971.91;4966085;28;97731;-67
2022/03/11 02:36:01;;;;;;;;;;;;;;;12.91;36.47;101974.88;4959102;28;108126;-66
2022/03/11 02:38:27;;;;;;;;;;;;;;;12.90;36.50;101973.25;4959734;28;98924;-65
2022/03/11 02:40:54;;;;;;;;;;;;;;;12.88;36.62;101978.88;4958764;28;126015;-65
2022/03/11 02:43:19;;;;;;;;;;;;;;;12.86;36.57;101972.91;4961020;28;97900;-63
2022/03/11 02:45:46;;;;;;;;;;;;;;;12.85;36.53;101976.69;4953330;28;127282;-65
2022/03/11 02:48:12;;;;;;;;;;;;;;;12.84;36.59;101976.91;4958772;28;98438;-65
2022/03/11 02:50:37;;;;;;;;;;;;;;;12.82;36.54;101974.47;4958429;28;127763;-65
2022/03/11 02:53:03;;;;;;;;;;;;;;;12.81;36.60;101969.28;4959360;28;105367;-65
2022/03/11 02:55:29;;;;;;;;;;;;;;;12.80;36.69;101971.19;4958747;28;127639;-65
2022/03/11 02:57:55;;;;;;;;;;;;;;;12.77;36.76;101967.09;4959339;28;125952;-64
2022/03/11 03:00:21;;;;;;;;;;;;;;;12.77;36.54;101966.25;4964394;28;127968;-63
2022/03/11 03:02:47;;;;;;;;;;;;;;;12.74;36.60;101967.56;4980005;28;97735;-64
2022/03/11 03:05:13;;;;;;;;;;;;;;;12.73;36.59;101959.69;4978258;28;126182;-65
2022/03/11 03:07:40;;;;;;;;;;;;;;;12.71;36.46;101953.72;4979025;27;99294;-65
2022/03/11 03:10:06;;;;;;;;;;;;;;;12.70;36.69;101952.09;4962568;28;101757;-63
2022/03/11 03:12:32;;;;;;;;;;;;;;;12.69;36.53;101950.44;4962665;28;110925;-65
2022/03/11 03:14:58;;;;;;;;;;;;;;;12.67;36.65;101955.28;4963364;28;98642;-64
2022/03/11 03:17:24;;;;;;;;;;;;;;;12.65;36.45;101960.09;4963174;28;110945;-64
2022/03/11 03:19:50;;;;;;;;;;;;;;;12.63;36.82;101954.94;4962033;28;126192;-64
2022/03/11 03:22:16;;;;;;;;;;;;;;;12.62;36.67;101953.31;4978274;28;97866;-64
2022/03/11 03:24:42;;;;;;;;;;;;;;;12.62;36.55;101952.50;4981713;28;128164;-64
2022/03/11 03:27:09;;;;;;;;;;;;;;;12.61;36.54;101951.66;4945178;28;99836;-65
2022/03/11 03:29:35;;;;;;;;;;;;;;;12.59;36.68;101951.09;4977470;28;117867;-66
2022/03/11 03:32:01;;;;;;;;;;;;;;;12.58;36.76;101954.06;4982535;28;104097;-65
2022/03/11 03:34:32;;;;;;;;;;;;;;;12.56;36.50;101948.06;4979516;28;120508;-63
2022/03/11 03:37:03;;;;;;;;;;;;;;;12.52;36.66;101951.25;4982150;28;119980;-63
2022/03/11 03:39:29;;;;;;;;;;;;;;;12.51;36.51;101946.91;4981490;28;98271;-65
2022/03/11 03:41:55;;;;;;;;;;;;;;;12.50;36.68;101939.03;4982878;28;97971;-63
2022/03/11 03:44:21;;;;;;;;;;;;;;;12.49;36.82;101942.78;4981346;28;98206;-65
2022/03/11 03:46:47;;;;;;;;;;;;;;;12.47;36.60;101939.53;4981161;28;123354;-63
2022/03/11 03:49:13;;;;;;;;;;;;;;;12.46;36.61;101944.13;4982619;28;98381;-65
2022/03/11 03:51:39;;;;;;;;;;;;;;;12.44;36.95;101942.72;4980551;28;117800;-66
2022/03/11 03:54:11;;;;;;;;;;;;;;;12.44;36.72;101948.13;4982371;28;98806;-63
2022/03/11 03:56:41;;;;;;;;;;;;;;;12.40;36.75;101939.66;4956592;28;98413;-65
2022/03/11 03:59:07;;;;;;;;;;;;;;;12.39;36.63;101956.97;4980877;28;120208;-66
2022/03/11 04:01:34;;;;;;;;;;;;;;;12.39;36.86;101942.63;4963080;28;107768;-63
2022/03/11 04:04:00;;;;;;;;;;;;;;;12.36;36.54;101949.34;4980488;28;99459;-66
2022/03/11 04:06:28;;;;;;;;;;;;;;;12.34;36.56;101947.94;4972741;28;99179;-65
2022/03/11 04:08:56;;;;;;;;;;;;;;;12.34;36.91;101947.94;4973014;28;98029;-66
2022/03/11 04:11:25;;;;;;;;;;;;;;;12.32;36.98;101944.66;4982393;28;98286;-62
2022/03/11 04:13:51;;;;;;;;;;;;;;;12.29;36.70;101945.97;4969768;28;99406;-65
2022/03/11 04:16:18;;;;;;;;;;;;;;;12.28;36.76;101947.84;4968845;28;99055;-63
2022/03/11 04:18:44;;;;;;;;;;;;;;;12.28;36.65;101947.03;4962686;28;98434;-64
2022/03/11 04:21:11;;;;;;;;;;;;;;;12.26;36.68;101951.84;4961678;28;97767;-63
2022/03/11 04:23:37;;;;;;;;;;;;;;;12.25;36.85;101951.03;4962489;28;98399;-63
2022/03/11 04:26:03;;;;;;;;;;;;;;;12.23;36.79;101952.34;4980887;28;98425;-64
2022/03/11 04:28:29;;;;;;;;;;;;;;;12.21;37.02;101949.88;4976229;28;98351;-63
2022/03/11 04:30:55;;;;;;;;;;;;;;;12.20;36.76;101944.72;4961268;28;116776;-63
2022/03/11 04:33:21;;;;;;;;;;;;;;;12.19;36.67;101943.91;4961603;28;127921;-64
2022/03/11 04:35:47;;;;;;;;;;;;;;;12.17;36.92;101946.00;4962085;28;98844;-65
2022/03/11 04:38:13;;;;;;;;;;;;;;;12.17;36.68;101950.59;4969808;28;127638;-63
2022/03/11 04:40:39;;;;;;;;;;;;;;;12.15;36.99;101940.03;4980985;28;100368;-63
2022/03/11 04:43:05;;;;;;;;;;;;;;;12.15;36.69;101941.94;4981233;28;127641;-64
2022/03/11 04:45:31;;;;;;;;;;;;;;;12.14;36.71;101940.28;4980579;28;127575;-63
2022/03/11 04:47:57;;;;;;;;;;;;;;;12.13;36.71;101941.34;4980558;28;127626;-64
2022/03/11 04:50:23;;;;;;;;;;;;;;;12.10;36.67;101942.63;4960726;28;117341;-64
2022/03/11 04:52:49;;;;;;;;;;;;;;;12.09;37.13;101937.47;4969564;28;127113;-64
2022/03/11 04:55:16;;;;;;;;;;;;;;;12.08;36.75;101939.38;4980017;28;127153;-63
2022/03/11 04:57:42;;;;;;;;;;;;;;;12.07;37.15;101943.13;4982203;28;97958;-63
2022/03/11 05:00:08;;;;;;;;;;;;;;;12.05;37.05;101942.53;4980905;28;98122;-65
2022/03/11 05:02:34;;;;;;;;;;;;;;;12.04;36.80;101946.31;4981719;28;108576;-66
2022/03/11 05:05:04;;;;;;;;;;;;;;;12.03;37.04;101952.78;4980182;28;99170;-64
2022/03/11 05:07:30;;;;;;;;;;;;;;;12.02;37.03;101948.44;4980626;28;98780;-63
2022/03/11 05:09:56;;;;;;;;;;;;;;;12.03;36.74;101955.50;4962415;28;101681;-66
2022/03/11 05:12:22;;;;;;;;;;;;;;;11.99;36.62;101949.75;4962398;28;108945;-64
2022/03/11 05:14:51;;;;;;;;;;;;;;;11.99;36.59;101944.34;4964170;28;127973;-66
2022/03/11 05:17:17;;;;;;;;;;;;;;;11.98;36.77;101937.28;4941855;28;119488;-64
2022/03/11 05:19:44;;;;;;;;;;;;;;;11.97;36.85;101943.75;4962177;28;98426;-63
2022/03/11 05:22:11;;;;;;;;;;;;;;;11.97;37.11;101945.63;4979805;28;98176;-65
2022/03/11 05:24:37;;;;;;;;;;;;;;;11.96;36.97;101946.69;4980410;28;98841;-64
2022/03/11 05:27:04;;;;;;;;;;;;;;;11.95;36.96;101945.88;4981335;28;98423;-63
2022/03/11 05:29:31;;;;;;;;;;;;;;;11.94;36.57;101948.81;4967418;28;97658;-65
2022/03/11 05:31:57;;;;;;;;;;;;;;;11.94;37.18;101949.63;4954743;28;99308;-66
2022/03/11 05:34:23;;;;;;;;;;;;;;;11.94;37.27;101948.81;4959801;28;128919;-65
2022/03/11 05:36:49;;;;;;;;;;;;;;;11.93;36.95;101950.69;4968026;28;127577;-63
2022/03/11 05:39:15;;;;;;;;;;;;;;;11.93;37.04;101956.09;4977111;28;106499;-66
2022/03/11 05:41:41;;;;;;;;;;;;;;;11.94;37.07;101962.31;4976472;28;122807;-64
2022/03/11 05:44:07;;;;;;;;;;;;;;;11.94;36.88;101965.03;4955977;28;100058;-64
2022/03/11 05:46:33;;;;;;;;;;;;;;;11.93;36.61;101961.50;4975906;28;127739;-66
2022/03/11 05:48:59;;;;;;;;;;;;;;;11.95;36.91;101959.41;4976144;28;115136;-64
2022/03/11 05:51:25;;;;;;;;;;;;;;;11.95;36.90;101961.28;4976444;28;114207;-66
2022/03/11 05:53:51;;;;;;;;;;;;;;;11.95;36.99;101967.50;4970774;28;128175;-66
2022/03/11 05:56:17;;;;;;;;;;;;;;;11.98;36.74;101963.47;4975443;28;126358;-66
2022/03/11 05:58:43;;;;;;;;;;;;;;;11.99;36.93;101963.25;4975544;28;98079;-65
2022/03/11 06:01:09;;;;;;;;;;;;;;;12.02;36.50;101965.50;4957123;28;129060;-66
2022/03/11 06:03:34;;;;;;;;;;;;;;;12.04;36.90;101959.84;4970692;28;118815;-64
2022/03/11 06:06:00;;;;;;;;;;;;;;;12.08;36.76;101962.88;4975796;28;118568;-64
2022/03/11 06:08:26;;;;;;;;;;;;;;;12.12;37.20;101970.25;4962563;28;117625;-65
2022/03/11 06:10:52;;;;;;;;;;;;;;;12.16;37.03;101970.59;4968605;28;99042;-64
2022/03/11 06:13:18;;;;;;;;;;;;;;;12.19;36.75;101973.63;4976991;28;98822;-64
2022/03/11 06:15:45;;;;;;;;;;;;;;;12.23;36.83;101982.09;4975831;28;108190;-64
2022/03/11 06:18:15;;;;;;;;;;;;;;;12.27;36.72;101980.53;4975292;28;97770;-64
2022/03/11 06:20:41;;;;;;;;;;;;;;;12.29;36.91;101970.28;4957797;28;100911;-64
2022/03/11 06:23:07;;;;;;;;;;;;;;;12.35;37.17;101982.84;4957362;28;99351;-65
2022/03/11 06:25:33;;;;;;;;;;;;;;;12.41;36.77;101984.56;4971102;28;127531;-64
2022/03/11 06:27:59;;;;;;;;;;;;;;;12.47;37.25;101978.19;4970281;28;97914;-66
2022/03/11 06:30:25;;;;;;;;;;;;;;;12.51;37.20;101976.66;4975499;28;98273;-66
2022/03/11 06:32:51;;;;;;;;;;;;;;;12.57;36.98;101988.38;4968683;28;121024;-64
2022/03/11 06:35:17;;;;;;;;;;;;;;;12.62;37.02;101982.25;4968651;28;98162;-65
2022/03/11 06:37:44;;;;;;;;;;;;;;;12.74;37.04;101981.09;4969631;28;98304;-65
2022/03/11 06:40:10;;;;;;;;;;;;;;;12.77;37.06;101987.91;4972950;28;98777;-64
2022/03/11 06:42:43;;;;;;;;;;;;;;;12.74;37.20;101985.69;4977120;27;98585;-65
2022/03/11 06:45:09;;;;;;;;;;;;;;;12.73;36.93;101989.44;4964844;28;98258;-65
2022/03/11 06:47:35;;;;;;;;;;;;;;;12.73;37.21;101998.41;4979464;28;97858;-64
2022/03/11 06:50:01;;;;;;;;;;;;;;;12.73;37.36;101992.16;4945505;28;130240;-64
2022/03/11 06:52:27;;;;;;;;;;;;;;;12.73;37.39;101990.28;4965567;28;98098;-64
2022/03/11 06:54:53;;;;;;;;;;;;;;;12.74;37.31;101993.81;4980023;28;127364;-65
2022/03/11 06:57:20;;;;;;;;;;;;;;;12.74;37.44;101991.13;4984262;28;104204;-64
2022/03/11 06:59:47;;;;;;;;;;;;;;;12.74;37.44;101991.94;4977116;28;99409;-64
2022/03/11 07:02:13;;;;;;;;;;;;;;;12.75;37.53;101995.44;4982744;28;105789;-64
2022/03/11 07:04:39;;;;;;;;;;;;;;;12.76;37.36;101987.06;4980224;28;98023;-66
2022/03/11 07:07:05;;;;;;;;;;;;;;;12.79;37.48;101991.19;4962112;28;117807;-64
2022/03/11 07:09:31;;;;;;;;;;;;;;;12.80;37.77;101992.81;4979488;28;125419;-65
2022/03/11 07:11:57;;;;;;;;;;;;;;;12.85;37.58;101987.50;4975962;28;125749;-66
2022/03/11 07:14:24;;;;;;;;;;;;;;;12.89;37.95;101985.97;4981418;28;98326;-64
2022/03/11 07:16:52;;;;;;;;;;;;;;;12.96;37.68;101986.59;4979801;28;106700;-65
2022/03/11 07:19:19;;;;;;;;;;;;;;;13.02;37.74;101988.31;4981344;28;98261;-64
2022/03/11 07:21:45;;;;;;;;;;;;;;;13.06;37.80;101979.72;4974108;28;119619;-63
2022/03/11 07:24:10;;;;;;;;;;;;;;;13.10;37.60;101983.56;4963893;28;128555;-64
2022/03/11 07:26:36;;;;;;;;;;;;;;;13.11;38.04;101977.88;4982777;28;116302;-64
2022/03/11 07:29:02;;;;;;;;;;;;;;;13.16;37.73;101986.09;4979209;28;127520;-64
2022/03/11 07:31:28;;;;;;;;;;;;;;;13.20;37.86;101981.84;4981026;28;127351;-65
2022/03/11 07:33:56;;;;;;;;;;;;;;;13.27;38.03;101982.50;4961988;28;126607;-64
2022/03/11 07:36:22;;;;;;;;;;;;;;;13.38;37.77;101980.75;4982319;28;97819;-66
2022/03/11 07:38:48;;;;;;;;;;;;;;;13.53;37.72;101979.34;4976066;28;98193;-63
2022/03/11 07:41:15;;;;;;;;;;;;;;;13.68;37.67;101972.22;4963340;28;98013;-64
2022/03/11 07:43:44;;;;;;;;;;;;;;;13.86;37.50;101976.50;4975659;28;118795;-63
2022/03/11 07:46:11;;;;;;;;;;;;;;;14.06;37.53;101973.19;4981745;28;98098;-63
2022/03/11 07:48:37;;;;;;;;;;;;;;;14.25;37.55;101970.97;4981334;28;117941;-63
2022/03/11 07:51:03;;;;;;;;;;;;;;;14.44;37.47;101974.97;4978951;28;99315;-63
2022/03/11 07:53:29;;;;;;;;;;;;;;;14.68;37.42;101980.91;4979737;28;128416;-65
2022/03/11 07:55:55;;;;;;;;;;;;;;;14.92;36.96;101978.66;4976820;27;117407;-64
2022/03/11 07:58:21;;;;;;;;;;;;;;;15.24;37.13;101977.78;4956655;28;98530;-65
2022/03/11 08:00:51;;;;;;;;;;;;;;;15.55;36.88;101981.50;4970019;28;98653;-64
2022/03/11 08:03:17;;;;;;;;;;;;;;;15.90;36.56;101978.16;4974960;28;98205;-64
2022/03/11 08:05:43;;;;;;;;;;;;;;;16.32;36.26;101985.34;4976401;28;98018;-64
2022/03/11 08:08:09;;;;;;;;;;;;;;;16.86;35.63;101971.28;4967078;28;99522;-64
2022/03/11 08:10:37;;;;;;;;;;;;;;;17.52;35.31;101978.47;4978276;28;98492;-63
2022/03/11 08:13:03;;;;;;;;;;;;;;;18.30;34.84;101972.41;4978276;28;98361;-64
2022/03/11 08:15:29;;;;;;;;;;;;;;;19.53;33.53;101965.84;4972133;28;97859;-64
2022/03/11 08:17:55;;;;;;;;;;;;;;;20.77;32.54;101967.41;4978426;28;98643;-64
2022/03/11 08:20:21;;;;;;;;;;;;;;;21.96;31.79;101964.03;4972187;28;126830;-64
2022/03/11 08:22:49;;;;;;;;;;;;;;;23.24;30.70;101965.28;4973554;28;98159;-64
2022/03/11 08:25:16;;;;;;;;;;;;;;;24.36;29.99;101972.16;4979141;28;98591;-64
2022/03/11 08:27:42;;;;;;;;;;;;;;;25.88;29.16;101983.75;4978470;28;98169;-64
2022/03/11 08:30:09;;;;;;;;;;;;;;;27.81;27.74;101980.28;4966178;28;110042;-65
2022/03/11 08:32:35;;;;;;;;;;;;;;;29.53;26.60;101987.78;4976239;28;97827;-64
2022/03/11 08:35:01;;;;;;;;;;;;;;;30.95;25.86;101984.41;4959713;28;105947;-64
2022/03/11 08:37:27;;;;;;;;;;;;;;;32.12;25.37;101995.00;4960135;28;121276;-64
2022/03/11 08:39:53;;;;;;;;;;;;;;;33.04;25.22;101988.88;4970451;28;98607;-64
2022/03/11 08:42:19;;;;;;;;;;;;;;;33.81;25.00;101987.84;4977737;28;127320;-64
2022/03/11 08:44:45;;;;;;;;;;;;;;;34.58;24.71;101976.59;4977312;28;117295;-61
2022/03/11 08:47:11;;;;;;;;;;;;;;;35.44;23.89;101973.84;4978526;28;119058;-62
2022/03/11 08:49:37;;;;;;;;;;;;;;;36.37;23.72;101985.59;4972566;28;98801;-62
2022/03/11 08:52:04;;;;;;;;;;;;;;;37.07;23.30;101977.91;4972382;28;97985;-63
2022/03/11 08:54:30;;;;;;;;;;;;;;;37.65;22.97;101974.56;4978610;28;105340;-63
2022/03/11 08:56:56;;;;;;;;;;;;;;;38.33;22.86;101968.94;4969612;28;118049;-64
2022/03/11 08:59:22;;;;;;;;;;;;;;;39.16;22.59;101965.63;4969505;28;127987;-63
2022/03/11 09:01:48;;;;;;;;;;;;;;;39.95;22.02;101970.56;4978249;28;108250;-63
2022/03/11 09:04:14;;;;;;;;;;;;;;;40.50;21.76;101966.13;4974716;28;98138;-63
2022/03/11 09:06:40;;;;;;;;;;;;;;;41.03;21.40;101960.41;4976915;27;98454;-63
2022/03/11 09:09:08;;;;;;;;;;;;;;;41.73;21.09;101964.56;4963979;28;127929;-62
2022/03/11 09:11:34;;;;;;;;;;;;;;;42.29;20.80;101964.13;4977338;28;99067;-62
2022/03/11 09:14:00;;;;;;;;;;;;;;;42.90;20.89;101965.78;4973252;28;98395;-63
2022/03/11 09:16:26;;;;;;;;;;;;;;;43.74;20.00;101966.03;4978713;28;98372;-63
2022/03/11 09:18:53;;;;;;;;;;;;;;;44.28;19.86;101955.50;4971401;28;128869;-63
2022/03/11 09:21:19;;;;;;;;;;;;;;;44.61;19.94;101954.94;4958837;28;98066;-62
2022/03/11 09:23:45;;;;;;;;;;;;;;;44.55;20.07;101951.94;4977603;28;97678;-62
2022/03/11 09:26:11;;;;;;;;;;;;;;;44.54;19.95;101954.00;4978261;28;98016;-62
2022/03/11 09:28:37;;;;;;;;;;;;;;;44.40;20.00;101943.22;4975012;28;109860;-63
2022/03/11 09:31:08;;;;;;;;;;;;;;;44.41;20.00;101944.00;4978383;28;108402;-63
2022/03/11 09:33:35;;;;;;;;;;;;;;;43.67;20.02;101948.53;4971654;28;97848;-63
2022/03/11 09:36:01;;;;;;;;;;;;;;;42.94;20.24;101946.63;4977372;28;99024;-62
2022/03/11 09:38:27;;;;;;;;;;;;;;;42.10;20.81;101934.78;4976479;28;99068;-62
2022/03/11 09:40:53;;;;;;;;;;;;;;;41.34;21.40;101938.97;4976668;28;127591;-63
2022/03/11 09:43:19;;;;;;;;;;;;;;;40.86;21.69;101932.16;4958645;28;117037;-64
2022/03/11 09:45:45;;;;;;;;;;;;;;;40.68;21.93;101931.84;4977974;28;102782;-63
2022/03/11 09:48:11;;;;;;;;;;;;;;;40.85;21.52;101933.41;4955440;28;127001;-63
2022/03/11 09:50:37;;;;;;;;;;;;;;;41.19;20.99;101938.59;4957912;28;98077;-63
2022/03/11 09:53:03;;;;;;;;;;;;;;;41.40;20.80;101933.59;4942880;28;97940;-63
2022/03/11 09:55:29;;;;;;;;;;;;;;;40.94;21.13;101932.75;4974905;28;128073;-64
2022/03/11 09:57:55;;;;;;;;;;;;;;;40.05;21.86;101924.41;4978781;28;98705;-64
2022/03/11 10:00:21;;;;;;;;;;;;;;;39.25;22.43;101932.84;4978073;28;114613;-63
2022/03/11 10:02:47;;;;;;;;;;;;;;;38.63;22.64;101920.19;4979714;28;118227;-63
2022/03/11 10:05:13;;;;;;;;;;;;;;;38.21;23.15;101922.44;4973317;28;103006;-64
2022/03/11 10:07:39;;;;;;;;;;;;;;;37.91;22.92;101917.63;4959123;28;128906;-64
2022/03/11 10:10:14;;;;;;;;;;;;;;;37.62;23.23;101916.38;4960124;28;126763;-63
2022/03/11 10:12:46;;;;;;;;;;;;;;;37.39;23.24;101914.19;4976233;28;97775;-63
2022/03/11 10:15:13;;;;;;;;;;;;;;;37.17;23.29;101913.59;4972570;28;99279;-64
2022/03/11 10:17:42;;;;;;;;;;;;;;;36.99;23.59;101917.41;4978693;27;98055;-64
2022/03/11 10:20:09;;;;;;;;;;;;;;;36.81;23.49;101908.28;4973907;28;97938;-65
2022/03/11 10:22:36;;;;;;;;;;;;;;;36.62;23.78;101910.44;4960517;28;97809;-64
2022/03/11 10:25:13;;;;;;;;;;;;;;;36.47;23.68;101910.97;4972195;28;98062;-63
2022/03/11 10:28:15;;;;;;;;;;;;;;;36.33;23.57;101920.25;4961131;28;115192;-63
2022/03/11 10:30:43;;;;;;;;;;;;;;;36.17;23.84;101926.38;4978086;28;99517;-63
2022/03/11 10:33:13;;;;;;;;;;;;;;;36.09;23.62;101914.38;4977600;28;109081;-63
2022/03/11 10:35:42;;;;;;;;;;;;;;;36.01;23.87;101918.44;4977767;28;98861;-64
2022/03/11 10:38:10;;;;;;;;;;;;;;;35.96;23.78;101912.41;4972224;28;98341;-64
2022/03/11 10:40:52;;;;;;;;;;;;;;;35.92;23.68;101903.22;4978416;28;98118;-64
2022/03/11 10:43:26;;;;;;;;;;;;;;;35.88;23.95;101898.44;4977598;28;111222;-64
2022/03/11 10:45:52;;;;;;;;;;;;;;;35.86;24.23;101902.88;4977487;28;120306;-66
2022/03/11 10:48:39;;;;;;;;;;;;;;;35.85;24.18;101904.88;4974744;28;98736;-64
2022/03/11 10:51:13;;;;;;;;;;;;;;;35.87;24.07;101898.84;4963498;28;98578;-63
2022/03/11 10:53:39;;;;;;;;;;;;;;;35.90;23.80;101906.44;4956877;28;98411;-64
2022/03/11 10:56:06;;;;;;;;;;;;;;;35.92;23.78;101903.22;4976087;28;98474;-63
2022/03/11 10:58:32;;;;;;;;;;;;;;;35.95;23.79;101897.59;4985183;28;98760;-64
2022/03/11 11:00:58;;;;;;;;;;;;;;;36.01;23.70;101900.81;4978499;28;97859;-64
2022/03/11 11:03:24;;;;;;;;;;;;;;;36.07;23.58;101894.34;4974932;28;114722;-64
2022/03/11 11:05:50;;;;;;;;;;;;;;;36.13;23.34;101889.13;4959864;28;98677;-64
2022/03/11 11:08:16;;;;;;;;;;;;;;;36.19;23.35;101895.09;4957826;28;128170;-63
2022/03/11 11:10:43;;;;;;;;;;;;;;;36.26;23.18;101889.44;4958275;28;127316;-64
2022/03/11 11:13:09;;;;;;;;;;;;;;;36.30;23.13;101870.56;4978669;28;97758;-63
2022/03/11 11:15:36;;;;;;;;;;;;;;;36.35;23.04;101876.56;4976074;28;99386;-64
2022/03/11 11:18:08;;;;;;;;;;;;;;;36.41;22.78;101879.72;4977910;28;120272;-63
2022/03/11 11:20:38;;;;;;;;;;;;;;;36.46;22.79;101870.09;4953207;28;98732;-63
2022/03/11 11:23:05;;;;;;;;;;;;;;;36.56;22.96;101877.63;4943649;28;98579;-63
2022/03/11 11:25:31;;;;;;;;;;;;;;;36.67;22.53;101871.91;4969493;28;101802;-63
2022/03/11 11:27:57;;;;;;;;;;;;;;;36.80;22.66;101862.56;4959078;28;112559;-63
2022/03/11 11:30:24;;;;;;;;;;;;;;;36.93;22.23;101865.66;4943319;28;128227;-63
2022/03/11 11:32:52;;;;;;;;;;;;;;;37.03;22.48;101867.59;4982484;28;98138;-63
2022/03/11 11:35:38;;;;;;;;;;;;;;;37.15;22.62;101857.03;4961036;28;97867;-63
2022/03/11 11:38:11;;;;;;;;;;;;;;;37.32;22.33;101853.22;4968944;28;118051;-63
2022/03/11 11:40:38;;;;;;;;;;;;;;;37.42;22.66;101859.97;4954824;28;115946;-63
2022/03/11 11:43:29;;;;;;;;;;;;;;;37.44;22.22;101852.72;4980616;28;97692;-63
2022/03/11 11:46:14;;;;;;;;;;;;;;;37.42;22.34;101846.72;4980465;28;98503;-64
2022/03/11 11:48:52;;;;;;;;;;;;;;;37.36;22.15;101839.94;4978295;28;99024;-63
2022/03/11 11:51:44;;;;;;;;;;;;;;;37.27;22.65;101834.03;4978723;28;98065;-64
2022/03/11 11:54:11;;;;;;;;;;;;;;;37.14;22.57;101830.97;4975239;28;97998;-63
2022/03/11 11:56:39;;;;;;;;;;;;;;;37.03;22.53;101830.28;4974850;28;98697;-63
2022/03/11 11:59:09;;;;;;;;;;;;;;;36.90;22.59;101844.00;4977815;28;98943;-63
2022/03/11 12:01:55;;;;;;;;;;;;;;;36.76;22.64;101832.94;4980966;28;98011;-64
2022/03/11 12:04:35;;;;;;;;;;;;;;;36.53;22.65;101831.53;4980567;28;97795;-65
2022/03/11 12:07:04;;;;;;;;;;;;;;;36.34;22.69;101824.44;4982092;28;97860;-64
2022/03/11 12:09:45;;;;;;;;;;;;;;;36.15;22.80;101813.75;4955838;28;118287;-65
2022/03/11 12:15:04;;;;;;;;;;;;;;;35.64;22.71;101824.44;4974360;28;99298;-63
2022/03/11 12:17:51;;;;;;;;;;;;;;;35.30;23.12;101803.78;4974613;28;98355;-65
2022/03/11 12:20:32;;;;;;;;;;;;;;;34.88;22.79;101805.44;4980168;28;98269;-64
2022/03/11 12:23:05;;;;;;;;;;;;;;;34.49;23.01;101803.50;4980538;28;98467;-65
2022/03/11 12:26:02;;;;;;;;;;;;;;;34.16;23.49;101787.88;4973664;28;97854;-64
2022/03/11 12:28:27;;;;;;;;;;;;;;;33.80;23.30;101807.38;4959217;28;98997;-65
2022/03/11 12:31:10;;;;;;;;;;;;;;;33.46;23.12;101795.66;4974164;28;98263;-63
2022/03/11 12:33:41;;;;;;;;;;;;;;;33.08;23.32;101797.84;4961709;28;98341;-65
2022/03/11 12:36:08;;;;;;;;;;;;;;;32.70;23.65;101801.97;4956963;28;100185;-63
2022/03/11 12:38:37;;;;;;;;;;;;;;;32.31;23.42;101794.03;4976185;28;115316;-65